Portada
METAR-TAF:

METAR-TAF

Aeroports :

Huron, Dakota del Sud, Estats Units d'Amèrica

latitud: 44-23-17N, longitud: 098-13-42W, altitud: 392 m

Observació

L'informe es va fer fa 1 hora i 7 minuts, a les 21:55 UTC
Vent 6 kt del Oest
Temperatura 3°C
Humitat 70%
Pressió 1012 hPa
Visibilitat: 16.1 km
Cel clar

METAR: KHON 222155Z AUTO 28006KT 10SM CLR 03/M02 A2987 RMK AO2 SLP129 T00331017

Hora: 17:02 (23:02 UTC)

Pronòstic

L'informe es va fer fa 5 hores i 39 minuts, a les 17:23 UTC
Pronòstic vàlid del 22 a les 18 UTC al 23 a les 18 UTC
Vent 6 kt del Sud/Sud-Oest
Visibilitat: 10 km
Cel clar
A partir de les 23 a les 1000 UTC
Vent 4 kt del Sud
Visibilitat: 9.7 km
Cel clar
boirina, boira a les proximitats
A partir de les 23 a les 1500 UTC
Vent 7 kt del Nord-Oest
Visibilitat: 10 km
Cel clar

TAF: KHON 221723Z 2218/2318 20006KT P6SM SKC FM231000 18004KT 6SM BR VCFG SKC FM231500 31007KT P6SM SKC

Observacions i pronòstics meteorològics de més de 4000 aeroports (METAR i TAF).

Les estacions disponibles són els punts grocs i vermells al mapa.

Posi el ratolí al punt desitjat per veure el nom de l'estació.

Feu clic per veure les observacions i els pronòstics meteorològics.

Per canviar el mapa: feu clic els botons verds amb una creu de color negre per apropar; al botó verd amb un guió per allunyar la imatge; o en les fletxes verdes per a mapes adjacents.


METAR-TAF: